Time;durP1;ratioP1;P1;durP2;ratioP2;P2;SDS_P1;SDS_P2;PMS_P1;PMS_P2;Temp;Humidity;BMP_temperature;BMP_pressure;BME280_temperature;BME280_humidity;BME280_pressure;Samples;Min_cycle;Max_cycle;Signal;HPM_P1;HPM_P2
2021/05/02 00:02:06;;;;;;;57.53;26.80;;;7.80;97.70;;;;;;5109622;28;20458;-76
2021/05/02 00:04:31;;;;;;;56.90;25.73;;;7.70;97.70;;;;;;5109370;28;20429;-74
2021/05/02 00:06:58;;;;;;;55.70;25.50;;;7.70;97.90;;;;;;5110215;28;20976;-74
2021/05/02 00:09:23;;;;;;;59.03;26.30;;;7.70;97.60;;;;;;5109675;28;20598;-74
2021/05/02 00:11:49;;;;;;;55.00;26.13;;;7.70;97.70;;;;;;5109855;28;20483;-74
2021/05/02 00:14:15;;;;;;;62.80;28.40;;;7.70;97.80;;;;;;5109450;28;20223;-73
2021/05/02 00:16:42;;;;;;;52.03;25.93;;;7.70;97.20;;;;;;5109601;28;20182;-74
2021/05/02 00:19:12;;;;;;;50.97;23.93;;;7.70;97.40;;;;;;5108259;28;20182;-76
2021/05/02 00:21:38;;;;;;;63.77;27.80;;;7.70;97.10;;;;;;5096578;28;20436;-74
2021/05/02 00:24:04;;;;;;;50.70;24.20;;;7.70;96.80;;;;;;5109487;28;20955;-74
2021/05/02 00:26:30;;;;;;;52.53;23.83;;;7.70;96.60;;;;;;5107910;28;20485;-76
2021/05/02 00:28:58;;;;;;;53.47;23.17;;;7.70;95.90;;;;;;5105511;28;20440;-74
2021/05/02 00:31:24;;;;;;;49.90;25.30;;;7.60;96.10;;;;;;5094970;28;21231;-74
2021/05/02 00:33:50;;;;;;;51.93;25.20;;;7.70;96.50;;;;;;5096546;28;20475;-73
2021/05/02 00:36:17;;;;;;;52.83;24.07;;;7.60;96.10;;;;;;5107426;28;20928;-75
2021/05/02 00:38:42;;;;;;;51.23;24.73;;;7.50;95.20;;;;;;5098329;28;20421;-74
2021/05/02 00:41:17;;;;;;;55.80;25.40;;;7.50;95.80;;;;;;5094650;28;20456;-74
2021/05/02 00:43:55;;;;;;;49.70;23.40;;;7.50;95.80;;;;;;5109184;28;20420;-75
2021/05/02 00:46:43;;;;;;;45.53;22.97;;;7.50;95.90;;;;;;5097820;28;20420;-73
2021/05/02 00:49:33;;;;;;;48.60;23.40;;;7.50;95.40;;;;;;5095544;28;20463;-75
2021/05/02 00:52:10;;;;;;;47.10;24.40;;;7.40;95.60;;;;;;5110988;27;20441;-73
2021/05/02 00:54:43;;;;;;;48.03;23.80;;;7.40;96.00;;;;;;5097134;28;20903;-74
2021/05/02 00:57:16;;;;;;;49.13;23.80;;;7.40;96.20;;;;;;5109384;28;20420;-74
2021/05/02 00:59:48;;;;;;;50.20;23.00;;;7.30;96.10;;;;;;5108902;28;20527;-73
2021/05/02 01:02:14;;;;;;;56.80;25.23;;;7.40;96.00;;;;;;5105985;28;20437;-75
2021/05/02 01:04:42;;;;;;;56.97;25.63;;;7.40;96.10;;;;;;5125239;28;20937;-74
2021/05/02 01:07:15;;;;;;;53.43;25.53;;;7.30;96.10;;;;;;5109603;28;20424;-73
2021/05/02 01:09:41;;;;;;;52.60;24.90;;;7.30;96.50;;;;;;5108532;28;20420;-74
2021/05/02 01:12:11;;;;;;;50.17;24.73;;;7.20;96.40;;;;;;5108823;28;20467;-73
2021/05/02 01:14:43;;;;;;;51.17;24.60;;;7.30;96.60;;;;;;5107560;28;20480;-75
2021/05/02 01:17:12;;;;;;;51.10;24.73;;;7.30;96.50;;;;;;5116411;28;21134;-74
2021/05/02 01:19:38;;;;;;;50.50;23.10;;;7.30;96.50;;;;;;5120708;28;20416;-75
2021/05/02 01:22:14;;;;;;;49.50;24.77;;;7.30;96.70;;;;;;5120066;28;20436;-74
2021/05/02 01:24:52;;;;;;;50.80;23.77;;;7.40;96.40;;;;;;5112763;28;20416;-75
2021/05/02 01:27:28;;;;;;;52.07;25.47;;;7.30;96.00;;;;;;5104078;28;20425;-73
2021/05/02 01:29:55;;;;;;;52.97;24.93;;;7.30;95.90;;;;;;5106037;28;20443;-74
2021/05/02 01:32:23;;;;;;;51.93;24.90;;;7.30;96.30;;;;;;5108751;28;21292;-73
2021/05/02 01:34:49;;;;;;;51.30;22.60;;;7.40;96.40;;;;;;5112627;28;20424;-74
2021/05/02 01:37:15;;;;;;;55.53;25.03;;;7.40;96.30;;;;;;5112598;28;20420;-75
2021/05/02 01:39:41;;;;;;;56.23;23.87;;;7.40;96.30;;;;;;5112612;28;20412;-74
2021/05/02 01:42:08;;;;;;;45.20;22.90;;;7.30;96.20;;;;;;5111669;28;20443;-73
2021/05/02 01:44:34;;;;;;;48.20;24.40;;;7.30;96.60;;;;;;5104620;28;20421;-74
2021/05/02 01:47:07;;;;;;;52.73;24.50;;;7.30;96.40;;;;;;5105251;28;20428;-75
2021/05/02 01:49:35;;;;;;;52.60;25.30;;;7.30;96.60;;;;;;5105332;28;20425;-74
2021/05/02 01:52:02;;;;;;;52.17;23.47;;;7.40;96.80;;;;;;5103499;28;20451;-75
2021/05/02 01:54:29;;;;;;;50.10;25.03;;;7.40;96.70;;;;;;5104040;28;20432;-73
2021/05/02 01:56:55;;;;;;;54.03;25.40;;;7.40;96.70;;;;;;5105718;28;20940;-73
2021/05/02 01:59:22;;;;;;;47.87;24.07;;;7.40;96.90;;;;;;5109964;28;20426;-74
2021/05/02 02:01:48;;;;;;;54.20;24.50;;;7.40;96.80;;;;;;5111493;28;20754;-74
2021/05/02 02:04:14;;;;;;;50.30;25.60;;;7.30;96.50;;;;;;5109215;28;20428;-74
2021/05/02 02:06:41;;;;;;;48.87;24.07;;;7.30;96.50;;;;;;5111387;28;20416;-74
2021/05/02 02:09:09;;;;;;;59.53;27.33;;;7.30;96.90;;;;;;5111021;28;20416;-74
2021/05/02 02:11:35;;;;;;;57.03;24.63;;;7.30;97.10;;;;;;5110977;28;20432;-73
2021/05/02 02:14:01;;;;;;;53.07;24.57;;;7.20;97.20;;;;;;5109133;28;20471;-73
2021/05/02 02:16:27;;;;;;;48.40;24.00;;;7.20;97.10;;;;;;5111023;28;20419;-72
2021/05/02 02:18:53;;;;;;;57.30;26.70;;;7.10;96.90;;;;;;5110831;28;20848;-74
2021/05/02 02:21:22;;;;;;;57.67;24.90;;;7.10;97.10;;;;;;5111074;28;20420;-73
2021/05/02 02:24:01;;;;;;;58.77;26.53;;;7.10;97.40;;;;;;5110323;28;20501;-75
2021/05/02 02:26:48;;;;;;;57.73;26.70;;;7.20;97.70;;;;;;5093062;28;20453;-73
2021/05/02 02:29:15;;;;;;;58.57;27.10;;;7.00;97.50;;;;;;5101830;28;20464;-73
2021/05/02 02:31:44;;;;;;;57.10;29.20;;;7.00;97.80;;;;;;5110174;28;20432;-73
2021/05/02 02:34:12;;;;;;;51.97;27.97;;;7.00;98.00;;;;;;5108864;28;20468;-74
2021/05/02 02:36:39;;;;;;;54.00;27.60;;;7.00;97.80;;;;;;5090510;28;20428;-74
2021/05/02 02:39:05;;;;;;;63.17;28.20;;;7.00;98.00;;;;;;5089641;28;20799;-74
2021/05/02 02:41:37;;;;;;;64.87;29.00;;;7.00;98.20;;;;;;5089951;28;20873;-72
2021/05/02 02:44:08;;;;;;;57.07;28.00;;;7.00;98.00;;;;;;5105338;28;20507;-74
2021/05/02 02:46:39;;;;;;;59.70;29.57;;;7.00;97.90;;;;;;5109159;28;20561;-75
2021/05/02 02:49:09;;;;;;;59.40;27.33;;;7.00;98.00;;;;;;5110009;28;20431;-73
2021/05/02 02:51:37;;;;;;;64.83;29.80;;;7.00;98.00;;;;;;5108936;28;20448;-74
2021/05/02 02:54:06;;;;;;;59.70;28.73;;;7.10;97.80;;;;;;5109618;28;21143;-75
2021/05/02 02:56:36;;;;;;;60.47;28.83;;;7.10;97.70;;;;;;5111970;28;20412;-73
2021/05/02 02:59:08;;;;;;;63.77;29.97;;;7.00;97.50;;;;;;5111586;28;20904;-74
2021/05/02 03:01:37;;;;;;;49.07;24.90;;;7.00;97.50;;;;;;5099761;28;20801;-74
2021/05/02 03:04:09;;;;;;;61.67;27.20;;;7.00;97.30;;;;;;5100606;28;20429;-73
2021/05/02 03:06:35;;;;;;;61.00;30.50;;;7.10;97.10;;;;;;5090315;28;20429;-73
2021/05/02 03:09:01;;;;;;;56.63;28.60;;;7.10;97.30;;;;;;5111895;28;20427;-73
2021/05/02 03:11:27;;;;;;;57.93;27.00;;;7.10;97.10;;;;;;5110786;28;20452;-73
2021/05/02 03:13:56;;;;;;;57.30;27.80;;;7.10;97.00;;;;;;5104717;28;20472;-73
2021/05/02 03:16:31;;;;;;;58.20;28.53;;;7.00;97.00;;;;;;5105694;28;20182;-74
2021/05/02 03:19:00;;;;;;;57.97;26.60;;;7.10;97.00;;;;;;5102917;28;20424;-74
2021/05/02 03:21:46;;;;;;;65.60;29.67;;;7.10;97.20;;;;;;5107880;28;20472;-75
2021/05/02 03:24:14;;;;;;;56.80;28.47;;;7.20;97.40;;;;;;5111203;28;21189;-74
2021/05/02 03:26:41;;;;;;;52.33;26.27;;;7.20;97.40;;;;;;5112731;28;20852;-74
2021/05/02 03:29:11;;;;;;;53.10;25.43;;;7.10;97.20;;;;;;5099580;28;20436;-73
2021/05/02 03:31:38;;;;;;;63.30;26.40;;;7.10;96.50;;;;;;5096873;28;20452;-73
2021/05/02 03:34:07;;;;;;;59.53;28.40;;;7.10;96.70;;;;;;5110128;28;20528;-74
2021/05/02 03:36:36;;;;;;;53.90;26.90;;;7.10;97.00;;;;;;5097469;28;20416;-74
2021/05/02 03:39:04;;;;;;;53.67;27.43;;;7.10;97.20;;;;;;5111034;28;20416;-75
2021/05/02 03:41:33;;;;;;;54.03;28.63;;;7.10;96.90;;;;;;5111631;28;20480;-72
2021/05/02 03:43:59;;;;;;;62.63;29.80;;;7.10;96.80;;;;;;5110011;28;20800;-73
2021/05/02 03:46:25;;;;;;;50.90;27.40;;;7.20;96.80;;;;;;5102886;28;20420;-75
2021/05/02 03:48:56;;;;;;;53.17;26.87;;;7.20;96.80;;;;;;5090231;28;20421;-72
2021/05/02 03:51:22;;;;;;;60.37;28.60;;;7.20;96.80;;;;;;5111262;28;20507;-74
2021/05/02 03:53:49;;;;;;;54.87;26.70;;;7.30;96.60;;;;;;5109377;28;21186;-73
2021/05/02 03:56:45;;;;;;;60.87;28.83;;;7.30;96.60;;;;;;5101698;28;20482;-73
2021/05/02 03:59:15;;;;;;;55.43;27.17;;;7.30;96.50;;;;;;5097635;28;20415;-74
2021/05/02 04:01:48;;;;;;;59.57;27.53;;;7.30;96.40;;;;;;5116139;28;20947;-73
2021/05/02 04:04:17;;;;;;;54.93;27.43;;;7.30;96.30;;;;;;5105971;28;20480;-73
2021/05/02 04:06:43;;;;;;;50.77;26.67;;;7.30;95.70;;;;;;5096796;28;20417;-74
2021/05/02 04:09:11;;;;;;;55.00;26.60;;;7.30;95.40;;;;;;5098530;28;20460;-75
2021/05/02 04:11:38;;;;;;;54.47;27.40;;;7.30;95.50;;;;;;5115044;28;20581;-76
2021/05/02 04:14:08;;;;;;;58.60;27.33;;;7.30;95.30;;;;;;5117139;28;20882;-74
2021/05/02 04:16:34;;;;;;;63.80;30.67;;;7.30;95.60;;;;;;5114464;28;20405;-74
2021/05/02 04:19:00;;;;;;;52.90;27.03;;;7.20;95.80;;;;;;5114396;28;20854;-73
2021/05/02 04:21:26;;;;;;;54.17;26.27;;;7.20;96.00;;;;;;5113113;28;20458;-74
2021/05/02 04:23:52;;;;;;;63.93;31.20;;;7.30;96.50;;;;;;5112387;28;20507;-74
2021/05/02 04:26:19;;;;;;;56.53;28.90;;;7.30;96.70;;;;;;5111305;28;20800;-74
2021/05/02 04:28:45;;;;;;;59.90;29.43;;;7.40;96.90;;;;;;5110287;28;20446;-75
2021/05/02 04:31:11;;;;;;;63.17;29.50;;;7.30;97.00;;;;;;5096855;28;20415;-73
2021/05/02 04:33:37;;;;;;;55.30;27.13;;;7.40;97.10;;;;;;5111421;28;20456;-74
2021/05/02 04:36:03;;;;;;;60.57;28.80;;;7.30;96.90;;;;;;5112126;28;21010;-75
2021/05/02 04:38:29;;;;;;;64.77;29.27;;;7.30;96.70;;;;;;5111806;28;20261;-74
2021/05/02 04:40:55;;;;;;;58.50;28.63;;;7.30;96.70;;;;;;5110680;28;20447;-75
2021/05/02 04:43:21;;;;;;;64.37;30.50;;;7.30;96.80;;;;;;5095734;28;20218;-72
2021/05/02 04:45:47;;;;;;;60.97;28.57;;;7.30;97.00;;;;;;5100000;28;20420;-74
2021/05/02 04:48:13;;;;;;;61.40;28.27;;;7.30;97.00;;;;;;5105696;28;20957;-74
2021/05/02 04:50:39;;;;;;;54.60;28.40;;;7.30;96.70;;;;;;5107989;28;20190;-75
2021/05/02 04:53:04;;;;;;;56.23;27.60;;;7.30;96.20;;;;;;5110422;28;20263;-75
2021/05/02 04:55:30;;;;;;;60.73;29.90;;;7.30;96.50;;;;;;5111164;28;20610;-74
2021/05/02 04:57:57;;;;;;;61.80;30.90;;;7.20;97.10;;;;;;5102095;28;20175;-77
2021/05/02 05:00:24;;;;;;;66.67;30.00;;;7.20;97.50;;;;;;5093672;28;20342;-73
2021/05/02 05:02:51;;;;;;;66.13;32.87;;;7.10;98.00;;;;;;5114208;28;20440;-75
2021/05/02 05:05:16;;;;;;;62.33;30.07;;;7.00;98.40;;;;;;5099817;28;20420;-76
2021/05/02 05:07:42;;;;;;;60.80;29.97;;;7.00;98.70;;;;;;5100747;28;20435;-75
2021/05/02 05:10:09;;;;;;;62.37;30.30;;;7.00;98.70;;;;;;5114217;28;20488;-77
2021/05/02 05:12:40;;;;;;;64.70;32.00;;;7.00;98.30;;;;;;5116724;28;20209;-75
2021/05/02 05:15:07;;;;;;;61.50;30.17;;;7.10;98.10;;;;;;5112204;28;20416;-75
2021/05/02 05:17:33;;;;;;;70.00;30.77;;;7.10;97.90;;;;;;5099579;28;20409;-74
2021/05/02 05:19:59;;;;;;;58.70;29.77;;;7.10;97.90;;;;;;5093927;28;20412;-77
2021/05/02 05:22:25;;;;;;;58.50;28.60;;;7.20;97.90;;;;;;5108834;28;21073;-74
2021/05/02 05:24:51;;;;;;;56.20;27.73;;;7.20;97.90;;;;;;5108607;28;20186;-74
2021/05/02 05:27:16;;;;;;;60.73;28.80;;;7.20;97.40;;;;;;5110215;28;20502;-75
2021/05/02 05:29:42;;;;;;;65.13;28.43;;;7.20;97.30;;;;;;5108512;28;20220;-73
2021/05/02 05:32:08;;;;;;;59.47;30.07;;;7.20;97.10;;;;;;5108572;28;20738;-74
2021/05/02 05:34:34;;;;;;;63.30;30.10;;;7.30;97.20;;;;;;5110034;28;20704;-74
2021/05/02 05:37:00;;;;;;;54.63;28.70;;;7.30;97.10;;;;;;5108789;28;20456;-75
2021/05/02 05:39:26;;;;;;;55.83;27.50;;;7.30;96.80;;;;;;5110179;28;20528;-75
2021/05/02 05:41:52;;;;;;;54.07;28.47;;;7.30;96.90;;;;;;5111110;28;20199;-74
2021/05/02 05:44:18;;;;;;;53.40;25.90;;;7.30;96.80;;;;;;5110877;28;20232;-74
2021/05/02 05:46:44;;;;;;;51.70;26.40;;;7.30;96.70;;;;;;5111556;28;20428;-74
2021/05/02 05:49:10;;;;;;;58.40;27.93;;;7.40;96.40;;;;;;5108204;28;20421;-73
2021/05/02 05:51:35;;;;;;;59.47;28.30;;;7.40;96.40;;;;;;5090749;28;20469;-76
2021/05/02 05:54:02;;;;;;;54.50;27.33;;;7.50;96.50;;;;;;5107931;28;20503;-77
2021/05/02 05:56:28;;;;;;;52.07;26.70;;;7.50;96.20;;;;;;5113769;28;20178;-77
2021/05/02 05:58:54;;;;;;;48.87;25.70;;;7.60;95.50;;;;;;5121378;28;20472;-74
2021/05/02 06:01:20;;;;;;;53.37;26.13;;;7.60;95.40;;;;;;5123708;28;20186;-74
2021/05/02 06:03:45;;;;;;;52.60;25.53;;;7.70;95.40;;;;;;5113521;28;20194;-76
2021/05/02 06:06:12;;;;;;;49.20;24.40;;;7.80;95.20;;;;;;5109402;28;20194;-75
2021/05/02 06:08:38;;;;;;;56.30;24.70;;;7.80;94.50;;;;;;5114170;28;20214;-76
2021/05/02 06:11:04;;;;;;;52.80;26.13;;;7.90;94.30;;;;;;5114764;28;20472;-75
2021/05/02 06:13:29;;;;;;;51.10;25.27;;;7.90;94.10;;;;;;5113755;28;20471;-76
2021/05/02 06:15:55;;;;;;;50.67;25.40;;;7.90;94.20;;;;;;5114116;28;20205;-74
2021/05/02 06:18:21;;;;;;;39.50;22.27;;;7.90;94.00;;;;;;5112258;28;20194;-77
2021/05/02 06:20:47;;;;;;;47.70;23.77;;;8.00;93.80;;;;;;5103229;28;20183;-75
2021/05/02 06:23:12;;;;;;;45.27;23.17;;;8.00;93.40;;;;;;5096269;28;20229;-75
2021/05/02 06:25:39;;;;;;;50.33;23.53;;;8.00;93.30;;;;;;5121522;28;20183;-76
2021/05/02 06:28:05;;;;;;;43.43;23.07;;;8.00;93.20;;;;;;5133681;28;20182;-75
2021/05/02 06:30:30;;;;;;;43.63;23.03;;;8.00;92.80;;;;;;5114247;28;20408;-74
2021/05/02 06:32:56;;;;;;;42.60;21.93;;;8.00;92.50;;;;;;5094156;28;20206;-74
2021/05/02 06:35:23;;;;;;;40.00;21.67;;;8.00;92.30;;;;;;5106509;28;20240;-75
2021/05/02 06:37:48;;;;;;;47.03;22.63;;;8.00;92.60;;;;;;5095980;28;20475;-75
2021/05/02 06:40:14;;;;;;;44.10;23.60;;;8.00;93.00;;;;;;5109595;28;20190;-73
2021/05/02 06:42:41;;;;;;;43.70;23.20;;;8.00;93.00;;;;;;5103477;28;20588;-75
2021/05/02 06:45:07;;;;;;;41.97;21.97;;;8.10;92.90;;;;;;5109325;28;20265;-74
2021/05/02 06:47:33;;;;;;;43.57;21.70;;;8.00;92.40;;;;;;5099612;28;20463;-74
2021/05/02 06:49:59;;;;;;;38.40;22.33;;;8.00;92.50;;;;;;5117396;28;20412;-73
2021/05/02 06:52:24;;;;;;;42.63;21.53;;;8.00;92.60;;;;;;5124525;28;20550;-76
2021/05/02 06:54:51;;;;;;;39.30;21.80;;;8.00;92.90;;;;;;5116353;28;20210;-77
2021/05/02 06:57:17;;;;;;;42.37;20.70;;;8.00;92.70;;;;;;5114617;27;20174;-74
2021/05/02 06:59:42;;;;;;;39.93;20.63;;;8.10;92.80;;;;;;5114187;28;20497;-76
2021/05/02 07:02:08;;;;;;;39.90;22.20;;;8.10;92.50;;;;;;5115459;28;20206;-74
2021/05/02 07:04:34;;;;;;;45.53;23.17;;;8.00;92.40;;;;;;5114422;28;20186;-74
2021/05/02 07:07:04;;;;;;;44.80;22.33;;;8.00;92.70;;;;;;5099260;28;20179;-76
2021/05/02 07:09:30;;;;;;;44.43;22.70;;;8.00;92.90;;;;;;5100248;28;20420;-73
2021/05/02 07:11:57;;;;;;;40.67;20.60;;;8.10;92.90;;;;;;5109540;28;20512;-75
2021/05/02 07:14:26;;;;;;;41.73;21.70;;;8.10;91.70;;;;;;5110039;28;21182;-77
2021/05/02 07:16:52;;;;;;;36.13;19.00;;;8.20;90.80;;;;;;5108311;28;20447;-77
2021/05/02 07:19:21;;;;;;;34.27;19.80;;;8.20;90.70;;;;;;5099962;28;20531;-74
2021/05/02 07:21:46;;;;;;;38.53;18.63;;;8.30;90.20;;;;;;5097599;28;20211;-74
2021/05/02 07:24:15;;;;;;;43.80;20.70;;;8.50;90.30;;;;;;5104187;28;20445;-74
2021/05/02 07:26:41;;;;;;;34.80;19.40;;;8.60;90.30;;;;;;5105894;28;20183;-74
2021/05/02 07:29:07;;;;;;;37.57;19.30;;;8.70;90.00;;;;;;5092958;28;20449;-74
2021/05/02 07:31:33;;;;;;;33.33;18.47;;;8.70;89.70;;;;;;5108471;28;20452;-75
2021/05/02 07:33:58;;;;;;;32.70;18.27;;;8.60;87.00;;;;;;5110835;28;20474;-76
2021/05/02 07:36:24;;;;;;;34.87;18.73;;;8.50;86.80;;;;;;5112946;28;20696;-75
2021/05/02 07:38:50;;;;;;;32.50;18.00;;;8.70;87.70;;;;;;5112498;28;20183;-77
2021/05/02 07:41:16;;;;;;;32.00;18.87;;;8.80;87.80;;;;;;5112480;28;20429;-73
2021/05/02 07:43:42;;;;;;;32.73;17.47;;;8.80;87.00;;;;;;5098588;28;20427;-74
2021/05/02 07:46:07;;;;;;;30.93;18.07;;;8.80;86.50;;;;;;5110926;28;20190;-74
2021/05/02 07:48:34;;;;;;;29.90;16.90;;;9.00;86.00;;;;;;5110230;28;20186;-74
2021/05/02 07:51:00;;;;;;;32.10;16.60;;;9.20;86.30;;;;;;5113922;28;20183;-75
2021/05/02 07:53:26;;;;;;;31.57;17.53;;;9.30;83.60;;;;;;5112908;28;20467;-73
2021/05/02 07:55:52;;;;;;;30.30;17.87;;;9.40;85.00;;;;;;5113491;28;20187;-74
2021/05/02 07:58:17;;;;;;;31.90;16.90;;;9.50;85.00;;;;;;5115159;28;20677;-75
2021/05/02 08:00:44;;;;;;;27.53;16.20;;;9.70;83.40;;;;;;5116562;28;20627;-76
2021/05/02 08:03:09;;;;;;;29.97;17.20;;;9.80;80.60;;;;;;5116355;28;20285;-74
2021/05/02 08:05:35;;;;;;;30.80;17.43;;;9.90;81.40;;;;;;5114497;28;20417;-74
2021/05/02 08:08:01;;;;;;;29.77;15.90;;;9.90;79.90;;;;;;5113420;28;20191;-73
2021/05/02 08:10:28;;;;;;;29.10;17.50;;;9.70;80.30;;;;;;5106872;28;20594;-75
2021/05/02 08:12:54;;;;;;;27.93;16.83;;;9.60;76.40;;;;;;5103007;28;20241;-74
2021/05/02 08:15:20;;;;;;;30.90;17.13;;;9.50;76.40;;;;;;5108035;27;20425;-74
2021/05/02 08:17:46;;;;;;;28.90;16.10;;;9.40;74.30;;;;;;5102555;28;20473;-73
2021/05/02 08:20:12;;;;;;;26.30;15.70;;;9.30;74.80;;;;;;5107660;28;20417;-74
2021/05/02 08:22:38;;;;;;;30.27;16.50;;;9.50;75.90;;;;;;5103805;28;20194;-74
2021/05/02 08:25:05;;;;;;;25.80;15.60;;;9.80;75.50;;;;;;5111377;28;20446;-73
2021/05/02 08:27:31;;;;;;;25.83;16.53;;;10.10;73.90;;;;;;5115046;28;20200;-73
2021/05/02 08:29:57;;;;;;;27.97;17.37;;;10.10;72.30;;;;;;5111917;28;20467;-75
2021/05/02 08:32:23;;;;;;;29.77;16.97;;;10.20;72.00;;;;;;5101444;28;20784;-75
2021/05/02 08:34:49;;;;;;;26.07;16.17;;;10.40;72.70;;;;;;5109861;28;20424;-75
2021/05/02 08:37:14;;;;;;;24.33;15.00;;;10.60;69.90;;;;;;5099183;28;20187;-73
2021/05/02 08:39:40;;;;;;;27.23;17.10;;;10.80;68.90;;;;;;5109721;28;20187;-74
2021/05/02 08:42:06;;;;;;;27.70;16.77;;;10.70;68.50;;;;;;5110582;28;20206;-74
2021/05/02 08:44:34;;;;;;;25.53;16.30;;;10.80;69.20;;;;;;5111397;28;20194;-74
2021/05/02 08:46:59;;;;;;;27.43;17.13;;;10.80;66.90;;;;;;5112367;28;20421;-73
2021/05/02 08:49:25;;;;;;;26.70;15.63;;;10.70;68.90;;;;;;5107238;28;20473;-70
2021/05/02 08:51:51;;;;;;;26.10;16.17;;;10.80;68.60;;;;;;5105362;28;20247;-69
2021/05/02 08:54:18;;;;;;;24.77;14.50;;;10.90;68.00;;;;;;5095123;28;20289;-70
2021/05/02 08:56:43;;;;;;;28.87;16.17;;;10.90;67.60;;;;;;5104048;28;20212;-70
2021/05/02 08:59:10;;;;;;;25.93;16.40;;;10.90;67.70;;;;;;5094003;28;20433;-72
2021/05/02 09:01:36;;;;;;;27.40;16.10;;;10.80;69.20;;;;;;5107460;28;20206;-70
2021/05/02 09:04:04;;;;;;;21.00;14.67;;;10.90;67.60;;;;;;5094660;28;20466;-69
2021/05/02 09:06:30;;;;;;;29.90;15.63;;;10.80;67.50;;;;;;5097259;28;20427;-70
2021/05/02 09:09:12;;;;;;;25.87;16.10;;;10.80;68.50;;;;;;5094955;28;20417;-69
2021/05/02 09:11:40;;;;;;;23.43;15.27;;;10.90;67.70;;;;;;5089482;28;20932;-70
2021/05/02 09:14:31;;;;;;;25.57;16.40;;;11.10;67.50;;;;;;5107240;28;20472;-70
2021/05/02 09:16:58;;;;;;;27.30;17.13;;;11.00;65.60;;;;;;5104734;28;20428;-70
2021/05/02 09:19:32;;;;;;;28.30;17.33;;;10.90;66.90;;;;;;5108262;28;20444;-70
2021/05/02 09:22:12;;;;;;;28.40;16.40;;;10.90;67.50;;;;;;5095927;28;20453;-70
2021/05/02 09:24:38;;;;;;;27.93;17.10;;;10.90;65.40;;;;;;5106885;28;20424;-70
2021/05/02 09:27:14;;;;;;;29.10;16.60;;;10.80;65.70;;;;;;5097139;28;20458;-70
2021/05/02 09:29:42;;;;;;;30.70;19.13;;;10.70;66.40;;;;;;5088239;28;20452;-69
2021/05/02 09:32:11;;;;;;;27.37;16.73;;;10.80;66.40;;;;;;5110409;28;20456;-70
2021/05/02 09:34:37;;;;;;;28.70;15.77;;;10.80;66.00;;;;;;5108336;28;20928;-70
2021/05/02 09:37:08;;;;;;;27.07;16.30;;;10.90;66.30;;;;;;5109198;28;20452;-69
2021/05/02 09:39:56;;;;;;;27.63;16.40;;;11.10;65.30;;;;;;5101375;28;20425;-70
2021/05/02 09:42:34;;;;;;;26.47;16.40;;;11.20;64.40;;;;;;5090984;28;20531;-71
2021/05/02 09:45:02;;;;;;;28.80;17.00;;;11.30;62.80;;;;;;5090985;28;20440;-71
2021/05/02 09:47:35;;;;;;;25.27;16.83;;;11.10;62.50;;;;;;5108878;28;20527;-69
2021/05/02 09:50:19;;;;;;;28.73;18.60;;;10.80;64.10;;;;;;5099151;28;20424;-70
2021/05/02 09:53:01;;;;;;;27.40;16.80;;;10.70;65.40;;;;;;5125118;28;20599;-70
2021/05/02 09:55:47;;;;;;;33.03;18.90;;;10.60;65.10;;;;;;5114909;28;20420;-69
2021/05/02 09:58:19;;;;;;;29.47;18.20;;;10.60;64.80;;;;;;5108176;28;20959;-74
2021/05/02 10:00:55;;;;;;;30.23;17.53;;;10.60;66.10;;;;;;5106596;28;20420;-73
2021/05/02 10:03:26;;;;;;;27.67;16.73;;;10.80;66.90;;;;;;5116421;27;20442;-73
2021/05/02 10:05:57;;;;;;;27.80;17.60;;;10.90;66.60;;;;;;5102560;28;20504;-74
2021/05/02 10:08:26;;;;;;;29.03;18.57;;;11.00;66.70;;;;;;5107510;28;20416;-73
2021/05/02 10:10:57;;;;;;;28.67;16.17;;;11.10;67.00;;;;;;5104060;28;20463;-74
2021/05/02 10:13:23;;;;;;;29.97;18.50;;;11.30;66.40;;;;;;5096981;28;20559;-75
2021/05/02 10:15:49;;;;;;;26.87;16.60;;;11.40;64.80;;;;;;5106138;28;20440;-74
2021/05/02 10:18:16;;;;;;;25.63;17.10;;;11.30;64.10;;;;;;5103561;28;20851;-72
2021/05/02 10:20:46;;;;;;;28.37;16.20;;;11.30;64.40;;;;;;5093568;28;20409;-72
2021/05/02 10:23:13;;;;;;;32.93;17.53;;;11.30;64.50;;;;;;5104395;28;20448;-74
2021/05/02 10:25:41;;;;;;;26.30;16.63;;;11.30;61.90;;;;;;5094953;28;20453;-74
2021/05/02 10:28:07;;;;;;;28.93;17.70;;;11.60;61.30;;;;;;5095329;28;20433;-73
2021/05/02 10:30:41;;;;;;;27.90;17.13;;;12.10;58.50;;;;;;5113560;28;20440;-74
2021/05/02 10:33:13;;;;;;;24.77;18.00;;;12.00;57.30;;;;;;5112856;28;20506;-74
2021/05/02 10:35:43;;;;;;;30.43;18.37;;;12.00;58.50;;;;;;5115940;28;20429;-75
2021/05/02 10:38:10;;;;;;;28.30;16.33;;;12.20;56.60;;;;;;5120864;28;20424;-76
2021/05/02 10:40:38;;;;;;;29.17;16.90;;;11.80;55.30;;;;;;5122055;28;20428;-73
2021/05/02 10:43:09;;;;;;;27.53;17.30;;;11.70;55.40;;;;;;5115617;28;20467;-73
2021/05/02 10:45:43;;;;;;;30.83;17.00;;;11.90;56.20;;;;;;5114518;28;20416;-73
2021/05/02 10:48:30;;;;;;;28.00;17.03;;;12.00;55.60;;;;;;5114649;28;20417;-72
2021/05/02 10:50:56;;;;;;;27.97;16.60;;;11.90;55.00;;;;;;5112728;28;20778;-72
2021/05/02 10:53:25;;;;;;;26.83;16.50;;;12.10;56.00;;;;;;5106339;28;20475;-73
2021/05/02 10:56:04;;;;;;;24.47;16.50;;;12.60;55.30;;;;;;5111564;28;20789;-75
2021/05/02 10:58:33;;;;;;;27.87;16.20;;;12.70;55.20;;;;;;5111507;28;20420;-72
2021/05/02 11:01:02;;;;;;;27.57;17.07;;;13.00;53.20;;;;;;5111480;28;20463;-76
2021/05/02 11:03:40;;;;;;;25.63;16.90;;;13.20;53.60;;;;;;5110354;28;20872;-74
2021/05/02 11:06:11;;;;;;;28.33;16.70;;;13.20;53.70;;;;;;5096628;28;20436;-75
2021/05/02 11:09:07;;;;;;;25.70;16.70;;;13.30;54.60;;;;;;5110242;28;20416;-75
2021/05/02 11:11:38;;;;;;;26.43;16.70;;;13.40;52.80;;;;;;5046843;28;20470;-74
2021/05/02 11:16:41;;;;;;;27.17;16.70;;;12.70;52.80;;;;;;5032955;28;20467;-75
2021/05/02 11:19:12;;;;;;;25.83;17.33;;;12.40;55.00;;;;;;5026795;28;20542;-74
2021/05/02 11:21:50;;;;;;;27.23;17.50;;;12.30;55.70;;;;;;5027546;28;20848;-74
2021/05/02 11:24:24;;;;;;;27.30;17.17;;;12.20;56.10;;;;;;5030153;28;20432;-76
2021/05/02 11:27:17;;;;;;;24.90;16.80;;;12.00;56.50;;;;;;5035432;28;20441;-74
2021/05/02 11:32:29;;;;;;;32.57;18.00;;;11.50;57.40;;;;;;5032473;28;20475;-73
2021/05/02 11:35:04;;;;;;;30.80;19.77;;;11.30;60.30;;;;;;5043796;28;20418;-74
2021/05/02 11:37:50;;;;;;;34.20;20.87;;;10.80;65.60;;;;;;5030555;28;20449;-74
2021/05/02 11:40:25;;;;;;;32.70;21.10;;;10.40;69.90;;;;;;5040932;28;20466;-75
2021/05/02 11:42:52;;;;;;;33.47;21.20;;;10.10;74.20;;;;;;5042212;28;20449;-76
2021/05/02 11:45:22;;;;;;;31.30;20.10;;;10.00;77.00;;;;;;5044636;28;20447;-73
2021/05/02 11:47:49;;;;;;;33.70;19.77;;;9.80;77.00;;;;;;5072472;28;20560;-74
2021/05/02 11:50:16;;;;;;;31.30;20.10;;;9.80;77.80;;;;;;5110907;28;20471;-75
2021/05/02 11:52:49;;;;;;;32.70;21.63;;;10.00;78.60;;;;;;5103370;28;20468;-76
2021/05/02 11:55:40;;;;;;;30.60;20.17;;;10.50;77.60;;;;;;5089864;28;20421;-75
2021/05/02 11:58:14;;;;;;;33.10;20.77;;;10.70;74.90;;;;;;5095245;28;20511;-76
2021/05/02 12:00:40;;;;;;;37.77;21.13;;;11.00;74.60;;;;;;5107472;28;20453;-77
2021/05/02 12:03:08;;;;;;;30.77;19.30;;;11.30;73.60;;;;;;5101514;28;20882;-74
2021/05/02 12:05:45;;;;;;;27.30;16.97;;;11.40;72.60;;;;;;5102093;28;20515;-74
2021/05/02 12:08:13;;;;;;;21.37;14.53;;;12.00;70.40;;;;;;5093791;28;20424;-75
2021/05/02 12:10:39;;;;;;;20.70;14.13;;;12.20;66.70;;;;;;5108706;28;20427;-75
2021/05/02 12:13:06;;;;;;;22.87;15.23;;;12.60;65.40;;;;;;5102081;28;20475;-76
2021/05/02 12:15:35;;;;;;;21.83;13.93;;;12.40;63.20;;;;;;5091623;28;20420;-75
2021/05/02 12:18:01;;;;;;;23.90;13.93;;;12.10;64.70;;;;;;5090752;28;20500;-75
2021/05/02 12:20:28;;;;;;;20.67;14.03;;;12.10;64.40;;;;;;5102132;28;20801;-76
2021/05/02 12:22:55;;;;;;;22.97;15.63;;;11.90;63.40;;;;;;5099290;28;20484;-76
2021/05/02 12:25:21;;;;;;;21.50;13.87;;;11.80;62.50;;;;;;5124309;27;20436;-77
2021/05/02 12:28:13;;;;;;;20.73;14.17;;;11.60;64.50;;;;;;5098697;28;20524;-75
2021/05/02 12:30:39;;;;;;;20.53;13.87;;;11.50;65.40;;;;;;5105586;28;20436;-74
2021/05/02 12:33:04;;;;;;;20.10;12.60;;;11.20;67.90;;;;;;5109270;28;20468;-75
2021/05/02 12:35:30;;;;;;;21.17;13.73;;;10.80;71.60;;;;;;5109241;28;20213;-76
2021/05/02 12:37:56;;;;;;;23.93;14.27;;;10.30;77.30;;;;;;5110467;28;20243;-75
2021/05/02 12:40:21;;;;;;;18.20;12.50;;;9.70;80.20;;;;;;5112117;28;20842;-75
2021/05/02 12:42:47;;;;;;;15.53;9.30;;;9.50;82.50;;;;;;5109036;28;20336;-73
2021/05/02 12:45:13;;;;;;;15.73;9.50;;;9.40;83.60;;;;;;5102529;28;20270;-74
2021/05/02 12:47:46;;;;;;;11.53;7.50;;;9.40;81.50;;;;;;5090781;28;20187;-76